Time;durP1;ratioP1;P1;durP2;ratioP2;P2;SDS_P1;SDS_P2;PMS_P1;PMS_P2;Temp;Humidity;BMP_temperature;BMP_pressure;BME280_temperature;BME280_humidity;BME280_pressure;Samples;Min_cycle;Max_cycle;Signal;HPM_P1;HPM_P2
2024/02/29 00:02:41;;;;;;;13.47;8.50;;;;;;;;;;4974361;28;20472;-88
2024/02/29 00:05:26;;;;;;;12.20;7.60;;;;;;;;;;4971853;28;20466;-88
2024/02/29 00:08:15;;;;;;;13.87;8.43;;;;;;;;;;4963402;28;20444;-89
2024/02/29 00:11:32;;;;;;;;;;;;;;;;;;;;;
2024/02/29 00:14:33;;;;;;;11.93;7.30;;;;;;;;;;4972805;28;20555;-88
2024/02/29 00:17:25;;;;;;;13.10;7.20;;;;;;;;;;4979703;28;20456;-87
2024/02/29 00:20:18;;;;;;;12.93;7.70;;;;;;;;;;4970399;28;20440;-87
2024/02/29 00:23:10;;;;;;;9.83;6.70;;;;;;;;;;4971249;28;20547;-88
2024/02/29 00:26:18;;;;;;;10.67;8.30;;;;;;;;;;4951871;28;20858;-88
2024/02/29 00:29:34;;;;;;;12.93;7.50;;;;;;;;;;4935945;28;20471;-88
2024/02/29 00:32:30;;;;;;;12.67;8.13;;;;;;;;;;4962259;28;20977;-87
2024/02/29 00:37:51;;;;;;;12.43;8.00;;;;;;;;;;1821944;23;20882;-85
2024/02/29 00:41:15;;;;;;;14.23;7.30;;;;;;;;;;4953782;28;20466;-88
2024/02/29 00:44:17;;;;;;;11.50;8.00;;;;;;;;;;4946470;28;20508;-89
2024/02/29 00:47:05;;;;;;;11.77;7.30;;;;;;;;;;4950122;28;20468;-87
2024/02/29 00:49:50;;;;;;;10.90;8.00;;;;;;;;;;4941801;28;20441;-89
2024/02/29 00:55:38;;;;;;;13.30;7.80;;;;;;;;;;2253717;23;20890;-89
2024/02/29 00:58:49;;;;;;;13.90;8.43;;;;;;;;;;4973022;28;20459;-88
2024/02/29 01:01:27;;;;;;;13.13;8.17;;;;;;;;;;4975834;28;20460;-88
2024/02/29 01:04:37;;;;;;;11.67;7.80;;;;;;;;;;4977157;28;20526;-88
2024/02/29 01:07:49;;;;;;;13.93;9.00;;;;;;;;;;4983516;28;20504;-88
2024/02/29 01:10:48;;;;;;;10.90;8.07;;;;;;;;;;4978965;28;20526;-88
2024/02/29 01:13:25;;;;;;;15.30;8.70;;;;;;;;;;4981180;28;20488;-88
2024/02/29 01:16:06;;;;;;;13.93;7.83;;;;;;;;;;4977894;28;20500;-86
2024/02/29 01:19:00;;;;;;;13.80;8.47;;;;;;;;;;4974230;28;21167;-89
2024/02/29 01:22:03;;;;;;;13.97;7.80;;;;;;;;;;4976161;28;20497;-87
2024/02/29 01:28:36;;;;;;;16.17;8.67;;;;;;;;;;4896793;29;20478;-88
2024/02/29 01:31:15;;;;;;;12.63;7.63;;;;;;;;;;4888755;29;20451;-88
2024/02/29 01:33:57;;;;;;;15.70;9.17;;;;;;;;;;4962592;28;20481;-88
2024/02/29 01:36:40;;;;;;;;;;;;;;;;;;;;;
2024/02/29 01:39:18;;;;;;;15.23;9.40;;;;;;;;;;4992149;28;20444;-88
2024/02/29 01:45:13;;;;;;;18.10;8.83;;;;;;;;;;4991626;28;20432;-87
2024/02/29 01:47:50;;;;;;;15.23;8.53;;;;;;;;;;4992866;28;21183;-88
2024/02/29 01:50:30;;;;;;;17.73;9.43;;;;;;;;;;4986828;28;20452;-86
2024/02/29 01:53:11;;;;;;;16.03;9.00;;;;;;;;;;4986398;28;20477;-87
2024/02/29 01:56:14;;;;;;;15.10;8.90;;;;;;;;;;4989372;28;20448;-88
2024/02/29 01:58:45;;;;;;;14.27;7.77;;;;;;;;;;4995084;28;20468;-89
2024/02/29 02:01:21;;;;;;;12.90;7.40;;;;;;;;;;4989829;28;20534;-88
2024/02/29 02:04:05;;;;;;;15.00;8.83;;;;;;;;;;4990594;28;20500;-85
2024/02/29 02:06:45;;;;;;;14.77;8.70;;;;;;;;;;4988713;28;20448;-87
2024/02/29 02:09:23;;;;;;;13.77;8.30;;;;;;;;;;4983513;28;20458;-88
2024/02/29 02:12:01;;;;;;;18.47;9.60;;;;;;;;;;4983856;28;20486;-88
2024/02/29 02:14:41;;;;;;;17.47;9.80;;;;;;;;;;4990702;28;20578;-86
2024/02/29 02:17:22;;;;;;;14.70;9.27;;;;;;;;;;4996868;28;20468;-88
2024/02/29 02:20:22;;;;;;;14.80;8.70;;;;;;;;;;4992366;28;20484;-88
2024/02/29 02:22:59;;;;;;;16.60;9.70;;;;;;;;;;4996668;28;20431;-86
2024/02/29 02:25:34;;;;;;;15.33;8.20;;;;;;;;;;4982405;28;20538;-87
2024/02/29 02:28:01;;;;;;;20.70;9.73;;;;;;;;;;4982841;28;20463;-86
2024/02/29 02:31:16;;;;;;;15.80;7.70;;;;;;;;;;4996928;28;20447;-87
2024/02/29 02:33:54;;;;;;;15.97;8.73;;;;;;;;;;4999804;28;20483;-88
2024/02/29 02:36:29;;;;;;;15.80;9.37;;;;;;;;;;4990330;28;20558;-87
2024/02/29 02:39:10;;;;;;;17.53;9.60;;;;;;;;;;4987678;28;20479;-88
2024/02/29 02:42:28;;;;;;;14.80;9.30;;;;;;;;;;4987243;28;20467;-88
2024/02/29 02:45:02;;;;;;;15.57;8.77;;;;;;;;;;4988337;28;20554;-87
2024/02/29 02:47:39;;;;;;;17.27;10.80;;;;;;;;;;4991921;28;20452;-88
2024/02/29 02:50:17;;;;;;;14.53;9.23;;;;;;;;;;4992434;28;20460;-90
2024/02/29 02:53:04;;;;;;;19.43;9.67;;;;;;;;;;4990564;28;20488;-87
2024/02/29 02:55:49;;;;;;;17.07;10.27;;;;;;;;;;4989092;28;20477;-86
2024/02/29 02:58:38;;;;;;;15.70;9.27;;;;;;;;;;4934805;28;20446;-86
2024/02/29 03:01:24;;;;;;;18.50;10.00;;;;;;;;;;4929858;29;21340;-88
2024/02/29 03:04:17;;;;;;;20.93;10.10;;;;;;;;;;4913589;29;20462;-85
2024/02/29 03:07:00;;;;;;;16.67;9.50;;;;;;;;;;4911477;29;20462;-87
2024/02/29 03:09:31;;;;;;;16.40;8.27;;;;;;;;;;4907642;28;21414;-87
2024/02/29 03:12:04;;;;;;;17.17;8.90;;;;;;;;;;4927778;29;20474;-86
2024/02/29 03:14:41;;;;;;;17.57;9.47;;;;;;;;;;4903480;29;20493;-86
2024/02/29 03:17:16;;;;;;;16.07;9.37;;;;;;;;;;4902546;29;20484;-87
2024/02/29 03:20:01;;;;;;;14.80;9.07;;;;;;;;;;4905178;29;21722;-87
2024/02/29 03:22:54;;;;;;;18.30;11.37;;;;;;;;;;4904523;29;20457;-88
2024/02/29 03:25:27;;;;;;;20.07;10.93;;;;;;;;;;4904690;29;20490;-89
2024/02/29 03:28:11;;;;;;;20.80;9.70;;;;;;;;;;4924143;29;20466;-88
2024/02/29 03:34:30;;;;;;;16.83;9.77;;;;;;;;;;4874458;29;20822;-88
2024/02/29 03:37:07;;;;;;;14.27;8.97;;;;;;;;;;4901489;29;20444;-87
2024/02/29 03:39:41;;;;;;;15.73;9.90;;;;;;;;;;4899117;29;20469;-87
2024/02/29 03:42:24;;;;;;;11.97;8.40;;;;;;;;;;4901421;29;20443;-88
2024/02/29 03:45:18;;;;;;;19.47;10.30;;;;;;;;;;4919797;28;20489;-86
2024/02/29 03:47:52;;;;;;;16.07;7.73;;;;;;;;;;4976342;28;20452;-87
2024/02/29 03:50:26;;;;;;;15.10;9.20;;;;;;;;;;4976810;28;21119;-87
2024/02/29 03:53:03;;;;;;;15.97;8.33;;;;;;;;;;4980108;28;20488;-87
2024/02/29 03:55:43;;;;;;;15.53;9.67;;;;;;;;;;4982260;28;20506;-88
2024/02/29 03:58:26;;;;;;;18.43;9.90;;;;;;;;;;4984997;28;21233;-86
2024/02/29 04:01:05;;;;;;;17.50;9.20;;;;;;;;;;4982960;28;20533;-86
2024/02/29 04:03:44;;;;;;;20.13;10.57;;;;;;;;;;4986916;28;20483;-87
2024/02/29 04:06:23;;;;;;;15.37;9.77;;;;;;;;;;4985913;28;20469;-86
2024/02/29 04:09:02;;;;;;;14.27;9.73;;;;;;;;;;4983605;28;20460;-87
2024/02/29 04:11:51;;;;;;;15.20;8.90;;;;;;;;;;4981687;28;20476;-87
2024/02/29 04:14:22;;;;;;;17.43;10.60;;;;;;;;;;4982690;28;20484;-87
2024/02/29 04:16:55;;;;;;;16.37;10.00;;;;;;;;;;4986674;28;20444;-87
2024/02/29 04:19:27;;;;;;;19.43;11.60;;;;;;;;;;4982343;28;20451;-88
2024/02/29 04:22:00;;;;;;;14.07;8.27;;;;;;;;;;4978809;28;20518;-88
2024/02/29 04:24:33;;;;;;;16.07;8.53;;;;;;;;;;4977679;28;20590;-86
2024/02/29 04:30:36;;;;;;;17.53;10.07;;;;;;;;;;4978598;28;20429;-87
2024/02/29 04:33:20;;;;;;;19.27;10.10;;;;;;;;;;4981891;28;20486;-86
2024/02/29 04:36:00;;;;;;;19.97;10.00;;;;;;;;;;4987569;28;20518;-88
2024/02/29 04:38:54;;;;;;;18.73;10.17;;;;;;;;;;4992431;28;20456;-88
2024/02/29 04:41:36;;;;;;;17.77;9.80;;;;;;;;;;4999484;28;20465;-88
2024/02/29 04:44:14;;;;;;;15.70;9.17;;;;;;;;;;4997150;28;20502;-86
2024/02/29 04:47:24;;;;;;;18.03;9.80;;;;;;;;;;4991395;28;20795;-87
2024/02/29 04:50:14;;;;;;;;;;;;;;;;;;;;;
2024/02/29 04:52:57;;;;;;;11.57;7.33;;;;;;;;;;4988848;28;20443;-85
2024/02/29 04:55:49;;;;;;;16.80;9.00;;;;;;;;;;4963028;28;20488;-86
2024/02/29 04:58:27;;;;;;;18.80;10.07;;;;;;;;;;4981508;28;20487;-83
2024/02/29 05:01:20;;;;;;;18.00;10.13;;;;;;;;;;4978908;28;20465;-84
2024/02/29 05:04:03;;;;;;;19.77;10.40;;;;;;;;;;5046528;23;20507;-88
2024/02/29 05:09:53;;;;;;;20.67;11.30;;;;;;;;;;4970310;28;20588;-87
2024/02/29 05:12:34;;;;;;;19.20;10.73;;;;;;;;;;4959799;28;20471;-86
2024/02/29 05:15:36;;;;;;;12.90;7.33;;;;;;;;;;4932276;29;20485;-88
2024/02/29 05:18:09;;;;;;;15.07;8.33;;;;;;;;;;4971927;28;20461;-87
2024/02/29 05:20:56;;;;;;;17.77;11.07;;;;;;;;;;4967645;28;20425;-89
2024/02/29 05:23:53;;;;;;;17.93;9.13;;;;;;;;;;4962979;28;20504;-89
2024/02/29 05:30:08;;;;;;;13.50;8.10;;;;;;;;;;4939465;28;20484;-89
2024/02/29 05:36:30;;;;;;;21.87;10.37;;;;;;;;;;4943664;28;20552;-88
2024/02/29 05:39:37;;;;;;;;;;;;;;;;;;;;;
2024/02/29 05:42:26;;;;;;;19.50;9.70;;;;;;;;;;4903577;29;20519;-89
2024/02/29 05:45:20;;;;;;;19.70;11.20;;;;;;;;;;4890106;29;20442;-90
2024/02/29 05:48:05;;;;;;;18.77;10.93;;;;;;;;;;4893119;29;20467;-89
2024/02/29 05:50:58;;;;;;;;;;;;;;;;;;;;;
2024/02/29 05:56:21;;;;;;;19.47;10.90;;;;;;;;;;5006990;23;20471;-88
2024/02/29 05:58:53;;;;;;;16.10;9.27;;;;;;;;;;5004227;28;20475;-88
2024/02/29 06:01:34;;;;;;;17.70;10.60;;;;;;;;;;5005954;28;21185;-86
2024/02/29 06:04:23;;;;;;;17.33;8.50;;;;;;;;;;5030792;28;20486;-88
2024/02/29 06:07:06;;;;;;;22.03;11.37;;;;;;;;;;5020048;28;20450;-88
2024/02/29 06:09:41;;;;;;;15.40;9.40;;;;;;;;;;5019740;28;20453;-87
2024/02/29 06:12:18;;;;;;;18.93;10.33;;;;;;;;;;5020896;28;20470;-87
2024/02/29 06:15:25;;;;;;;17.47;9.20;;;;;;;;;;5031879;28;20469;-87
2024/02/29 06:18:02;;;;;;;23.73;11.07;;;;;;;;;;5008880;28;20454;-88
2024/02/29 06:20:36;;;;;;;21.00;11.13;;;;;;;;;;5007535;28;20474;-87
2024/02/29 06:23:09;;;;;;;19.40;11.30;;;;;;;;;;5007811;28;20482;-85
2024/02/29 06:25:55;;;;;;;15.90;9.17;;;;;;;;;;5006239;28;20532;-86
2024/02/29 06:28:44;;;;;;;;;;;;;;;;;;;;;
2024/02/29 06:31:27;;;;;;;19.23;9.97;;;;;;;;;;5008107;28;20493;-86
2024/02/29 06:34:13;;;;;;;13.50;8.03;;;;;;;;;;5008521;28;20484;-87
2024/02/29 06:36:47;;;;;;;17.53;9.87;;;;;;;;;;5006511;28;21010;-85
2024/02/29 06:39:38;;;;;;;12.60;8.40;;;;;;;;;;5003295;28;21748;-85
2024/02/29 06:42:14;;;;;;;15.73;8.43;;;;;;;;;;5005407;28;20520;-86
2024/02/29 06:45:19;;;;;;;17.27;8.60;;;;;;;;;;4999929;28;20528;-85
2024/02/29 06:51:58;;;;;;;15.87;9.43;;;;;;;;;;4913349;29;20823;-85
2024/02/29 07:01:52;;;;;;;19.37;10.20;;;;;;;;;;4988042;28;20515;-87
2024/02/29 07:43:47;;;;;;;13.23;7.80;;;;;;;;;;4971958;28;20523;-87
2024/02/29 07:46:36;;;;;;;13.70;8.70;;;;;;;;;;4973028;28;21163;-88
2024/02/29 07:49:15;;;;;;;11.27;7.30;;;;;;;;;;4984930;28;20982;-89
2024/02/29 07:52:22;;;;;;;13.27;8.60;;;;;;;;;;4950753;28;20476;-88
2024/02/29 07:55:23;;;;;;;14.47;9.10;;;;;;;;;;4961361;28;20481;-85
2024/02/29 07:58:07;;;;;;;15.20;8.60;;;;;;;;;;4911317;28;20488;-88
2024/02/29 08:00:59;;;;;;;14.73;8.10;;;;;;;;;;4969020;28;20498;-86
2024/02/29 08:03:48;;;;;;;11.70;7.00;;;;;;;;;;4973391;28;20557;-87
2024/02/29 08:09:27;;;;;;;15.53;9.00;;;;;;;;;;4965503;28;20471;-85
2024/02/29 08:15:07;;;;;;;11.97;8.20;;;;;;;;;;4974160;28;20485;-87
2024/02/29 08:17:51;;;;;;;18.07;8.33;;;;;;;;;;4989232;28;20458;-86
2024/02/29 08:20:28;;;;;;;12.73;8.00;;;;;;;;;;4994990;28;20911;-87
2024/02/29 08:23:01;;;;;;;13.87;7.60;;;;;;;;;;4979987;28;20517;-86
2024/02/29 08:26:13;;;;;;;12.60;7.90;;;;;;;;;;4993030;28;20483;-88
2024/02/29 08:29:13;;;;;;;;;;;;;;;;;;;;;
2024/02/29 08:32:02;;;;;;;13.80;7.60;;;;;;;;;;4966125;28;20453;-88
2024/02/29 08:34:41;;;;;;;11.17;7.47;;;;;;;;;;4977492;28;20495;-86
2024/02/29 08:37:17;;;;;;;12.17;7.87;;;;;;;;;;4975702;28;20496;-86
2024/02/29 08:47:13;;;;;;;13.30;7.83;;;;;;;;;;4946117;28;20488;-88
2024/02/29 08:50:09;;;;;;;12.60;7.63;;;;;;;;;;4965946;28;22395;-89
2024/02/29 08:53:09;;;;;;;17.37;9.47;;;;;;;;;;4980702;28;20471;-88
2024/02/29 08:55:53;;;;;;;14.50;8.30;;;;;;;;;;4978323;28;20520;-87
2024/02/29 08:59:00;;;;;;;9.00;6.83;;;;;;;;;;4967945;28;20459;-88
2024/02/29 09:01:47;;;;;;;12.13;7.30;;;;;;;;;;4938348;28;20608;-89
2024/02/29 09:04:18;;;;;;;11.53;7.50;;;;;;;;;;4965470;28;20569;-88
2024/02/29 09:07:03;;;;;;;11.33;7.73;;;;;;;;;;4964463;28;20471;-89
2024/02/29 09:09:44;;;;;;;12.90;7.80;;;;;;;;;;4950741;28;21121;-87
2024/02/29 09:12:19;;;;;;;10.70;6.87;;;;;;;;;;4971939;28;20452;-86
2024/02/29 09:14:54;;;;;;;12.57;6.67;;;;;;;;;;4982326;28;20601;-88
2024/02/29 09:17:26;;;;;;;14.60;8.23;;;;;;;;;;4964297;28;20903;-87
2024/02/29 09:20:04;;;;;;;13.20;7.40;;;;;;;;;;4970421;28;20468;-87
2024/02/29 09:22:41;;;;;;;9.97;6.50;;;;;;;;;;4983194;28;20483;-87
2024/02/29 09:25:14;;;;;;;8.87;6.03;;;;;;;;;;4977406;28;20461;-86
2024/02/29 09:27:49;;;;;;;10.80;6.70;;;;;;;;;;4985901;28;20515;-87
2024/02/29 09:30:49;;;;;;;;;;;;;;;;;;;;;
2024/02/29 09:34:11;;;;;;;12.00;7.43;;;;;;;;;;4968574;28;20953;-88
2024/02/29 09:37:03;;;;;;;12.93;7.10;;;;;;;;;;4972004;28;20488;-88
2024/02/29 09:40:05;;;;;;;8.30;6.27;;;;;;;;;;4971335;28;20437;-86
2024/02/29 09:42:41;;;;;;;9.80;6.90;;;;;;;;;;4993800;28;20458;-89
2024/02/29 09:45:48;;;;;;;9.33;5.20;;;;;;;;;;4984630;28;20455;-87
2024/02/29 09:49:20;;;;;;;10.10;6.50;;;;;;;;;;4993116;28;20436;-87
2024/02/29 09:52:23;;;;;;;;;;;;;;;;;;;;;
2024/02/29 09:55:28;;;;;;;12.80;5.93;;;;;;;;;;4949917;29;20461;-88
2024/02/29 09:58:05;;;;;;;9.13;6.73;;;;;;;;;;4951884;29;20458;-88
2024/02/29 10:01:07;;;;;;;9.80;6.40;;;;;;;;;;4954605;28;20501;-86
2024/02/29 10:04:06;;;;;;;9.97;6.10;;;;;;;;;;4947542;29;21053;-88
2024/02/29 10:06:56;;;;;;;9.73;6.20;;;;;;;;;;4950015;29;20869;-87
2024/02/29 10:13:09;;;;;;;7.60;5.37;;;;;;;;;;4920479;29;20477;-86
2024/02/29 10:16:08;;;;;;;9.90;6.63;;;;;;;;;;4901972;29;20499;-88
2024/02/29 10:19:10;;;;;;;9.97;6.20;;;;;;;;;;4914353;29;20444;-86
2024/02/29 10:21:51;;;;;;;10.43;6.70;;;;;;;;;;4916156;29;20528;-87
2024/02/29 10:25:08;;;;;;;10.57;5.53;;;;;;;;;;4951698;28;20457;-87
2024/02/29 10:31:14;;;;;;;6.87;5.47;;;;;;;;;;4962229;28;20494;-88
2024/02/29 10:34:01;;;;;;;7.40;5.73;;;;;;;;;;4947219;29;20512;-88
2024/02/29 10:37:09;;;;;;;7.20;6.10;;;;;;;;;;4952834;28;20596;-87
2024/02/29 10:40:34;;;;;;;8.80;5.10;;;;;;;;;;4957106;28;20447;-89
2024/02/29 10:43:33;;;;;;;8.53;5.47;;;;;;;;;;4952116;29;20484;-87
2024/02/29 10:46:20;;;;;;;8.13;5.73;;;;;;;;;;4957300;29;20473;-86
2024/02/29 10:49:15;;;;;;;8.20;5.70;;;;;;;;;;4958261;28;20462;-87
2024/02/29 10:52:34;;;;;;;8.80;6.20;;;;;;;;;;4952122;28;20448;-87
2024/02/29 10:58:51;;;;;;;7.17;5.33;;;;;;;;;;4933114;29;20458;-86
2024/02/29 11:01:22;;;;;;;8.57;5.70;;;;;;;;;;4954610;29;20449;-86
2024/02/29 11:07:44;;;;;;;10.20;5.90;;;;;;;;;;4853931;29;20472;-87
2024/02/29 11:11:16;;;;;;;;;;;;;;;;;;;;;
2024/02/29 11:14:15;;;;;;;7.30;5.23;;;;;;;;;;4918481;29;20491;-85
2024/02/29 11:17:03;;;;;;;8.23;4.23;;;;;;;;;;4922184;28;20503;-86
2024/02/29 11:20:19;;;;;;;8.03;4.90;;;;;;;;;;4910548;29;20482;-87
2024/02/29 11:23:15;;;;;;;8.63;5.53;;;;;;;;;;4961719;28;20480;-87
2024/02/29 11:27:00;;;;;;;7.90;5.90;;;;;;;;;;4963736;28;20507;-85
2024/02/29 11:29:53;;;;;;;8.30;5.33;;;;;;;;;;4899878;29;20551;-87
2024/02/29 11:36:15;;;;;;;8.37;6.47;;;;;;;;;;4875433;29;20488;-86
2024/02/29 11:38:57;;;;;;;7.27;5.50;;;;;;;;;;4966287;28;20461;-86
2024/02/29 11:41:40;;;;;;;8.80;5.40;;;;;;;;;;4963721;28;20435;-86
2024/02/29 11:44:35;;;;;;;7.10;4.33;;;;;;;;;;4965697;28;20511;-86
2024/02/29 11:47:24;;;;;;;9.90;5.27;;;;;;;;;;4954931;28;20481;-88
2024/02/29 11:50:08;;;;;;;6.90;4.47;;;;;;;;;;4954797;29;20446;-85
2024/02/29 11:52:37;;;;;;;5.40;4.10;;;;;;;;;;4967363;28;20579;-84
2024/02/29 11:55:15;;;;;;;10.10;5.30;;;;;;;;;;4962612;28;20520;-82
2024/02/29 11:57:54;;;;;;;5.30;4.10;;;;;;;;;;4954375;28;20572;-84
2024/02/29 12:00:32;;;;;;;8.30;4.60;;;;;;;;;;4957680;29;20505;-84
2024/02/29 12:03:04;;;;;;;7.07;4.37;;;;;;;;;;4955158;28;20473;-85
2024/02/29 12:05:36;;;;;;;6.87;4.50;;;;;;;;;;4958189;28;20457;-82
2024/02/29 12:08:10;;;;;;;5.57;4.00;;;;;;;;;;4949254;28;20466;-84
2024/02/29 12:10:38;;;;;;;10.03;4.60;;;;;;;;;;4968194;28;20440;-83
2024/02/29 12:13:38;;;;;;;7.20;4.60;;;;;;;;;;4954591;29;20463;-84
2024/02/29 12:16:10;;;;;;;6.63;4.10;;;;;;;;;;4957485;28;20492;-85
2024/02/29 12:18:38;;;;;;;4.73;3.80;;;;;;;;;;4949337;29;21765;-84
2024/02/29 12:21:13;;;;;;;6.47;4.10;;;;;;;;;;4955404;29;20485;-86
2024/02/29 12:23:40;;;;;;;6.07;3.90;;;;;;;;;;4953364;28;20461;-83
2024/02/29 12:26:17;;;;;;;5.33;4.20;;;;;;;;;;4952258;28;20449;-86
2024/02/29 12:28:50;;;;;;;5.43;4.00;;;;;;;;;;4966500;28;20502;-83
2024/02/29 12:31:21;;;;;;;6.13;4.07;;;;;;;;;;4971847;28;20481;-86
2024/02/29 12:33:56;;;;;;;7.17;3.37;;;;;;;;;;4978478;28;20540;-85
2024/02/29 12:36:28;;;;;;;5.20;4.70;;;;;;;;;;4964060;28;20516;-84
2024/02/29 12:38:55;;;;;;;5.87;4.80;;;;;;;;;;4965768;28;20457;-84
2024/02/29 12:41:26;;;;;;;5.13;4.07;;;;;;;;;;4962577;28;20973;-82
2024/02/29 12:44:01;;;;;;;5.10;4.57;;;;;;;;;;4953007;29;20490;-83
2024/02/29 12:46:31;;;;;;;4.97;3.93;;;;;;;;;;4952346;28;20471;-84
2024/02/29 12:49:03;;;;;;;5.93;4.03;;;;;;;;;;4948651;29;20445;-85
2024/02/29 12:51:37;;;;;;;6.57;4.47;;;;;;;;;;4963936;28;20463;-83
2024/02/29 12:54:07;;;;;;;4.37;3.87;;;;;;;;;;4971387;28;20472;-84
2024/02/29 12:56:37;;;;;;;4.40;3.70;;;;;;;;;;4956096;29;20473;-84
2024/02/29 12:59:07;;;;;;;5.50;3.77;;;;;;;;;;4969579;28;20442;-87
2024/02/29 13:01:37;;;;;;;5.27;4.17;;;;;;;;;;4956373;29;21089;-85
2024/02/29 13:04:06;;;;;;;4.50;4.07;;;;;;;;;;4936411;29;20481;-84
2024/02/29 13:06:35;;;;;;;6.03;4.10;;;;;;;;;;4952525;29;20521;-83
2024/02/29 13:09:07;;;;;;;4.97;3.53;;;;;;;;;;4950717;29;20488;-83
2024/02/29 13:11:38;;;;;;;3.63;3.30;;;;;;;;;;4954975;29;20546;-86
2024/02/29 13:14:06;;;;;;;6.57;4.70;;;;;;;;;;4954877;28;20469;-85
2024/02/29 13:16:37;;;;;;;7.33;4.40;;;;;;;;;;4950036;29;20517;-85
2024/02/29 13:19:06;;;;;;;6.07;3.90;;;;;;;;;;4950177;28;20465;-83
2024/02/29 13:21:33;;;;;;;4.20;3.33;;;;;;;;;;4951299;29;20470;-86
2024/02/29 13:24:06;;;;;;;4.03;3.37;;;;;;;;;;4946106;29;20510;-85
2024/02/29 13:26:36;;;;;;;7.10;3.97;;;;;;;;;;4952944;29;20511;-85
2024/02/29 13:29:08;;;;;;;4.83;3.60;;;;;;;;;;4948216;29;20461;-84
2024/02/29 13:31:35;;;;;;;4.83;3.57;;;;;;;;;;4947354;28;20465;-82
2024/02/29 13:34:13;;;;;;;4.80;3.93;;;;;;;;;;4941566;28;20473;-85
2024/02/29 13:36:45;;;;;;;4.13;3.50;;;;;;;;;;4965119;28;20486;-83
2024/02/29 13:39:17;;;;;;;5.30;3.20;;;;;;;;;;4946143;28;20459;-84
2024/02/29 13:41:45;;;;;;;5.50;3.77;;;;;;;;;;4946849;29;20453;-84
2024/02/29 13:44:13;;;;;;;5.80;3.50;;;;;;;;;;4947977;29;20512;-84
2024/02/29 13:46:42;;;;;;;3.90;3.40;;;;;;;;;;4948922;29;20485;-86
2024/02/29 13:49:12;;;;;;;2.97;2.60;;;;;;;;;;4948011;28;20513;-85
2024/02/29 13:51:45;;;;;;;4.47;3.60;;;;;;;;;;4950270;28;20744;-85
2024/02/29 13:54:13;;;;;;;4.20;3.43;;;;;;;;;;4952406;29;20484;-83
2024/02/29 13:56:40;;;;;;;7.87;5.00;;;;;;;;;;4962583;28;20492;-84
2024/02/29 13:59:10;;;;;;;3.40;3.00;;;;;;;;;;4964366;28;20437;-84
2024/02/29 14:01:49;;;;;;;3.67;3.20;;;;;;;;;;4964629;28;20526;-85
2024/02/29 14:04:29;;;;;;;5.10;3.57;;;;;;;;;;4946834;28;20547;-83
2024/02/29 14:07:03;;;;;;;4.77;3.57;;;;;;;;;;4946481;29;20453;-85
2024/02/29 14:09:32;;;;;;;5.83;2.97;;;;;;;;;;4956461;28;20454;-85
2024/02/29 14:12:06;;;;;;;3.27;2.87;;;;;;;;;;4958089;28;20456;-84
2024/02/29 14:14:37;;;;;;;5.43;3.20;;;;;;;;;;4957833;28;20470;-84
2024/02/29 14:17:15;;;;;;;6.43;3.17;;;;;;;;;;4957205;28;20505;-83
2024/02/29 14:19:47;;;;;;;3.70;2.90;;;;;;;;;;4951192;28;20528;-84
2024/02/29 14:22:18;;;;;;;3.57;3.13;;;;;;;;;;4955223;28;20470;-85
2024/02/29 14:24:56;;;;;;;6.57;3.40;;;;;;;;;;4956304;28;20482;-83
2024/02/29 14:27:29;;;;;;;3.70;2.87;;;;;;;;;;4966441;28;20447;-83
2024/02/29 14:29:57;;;;;;;5.00;3.53;;;;;;;;;;4961328;28;20498;-83
2024/02/29 14:32:29;;;;;;;4.43;3.10;;;;;;;;;;4977158;28;20468;-84
2024/02/29 14:34:58;;;;;;;4.20;3.23;;;;;;;;;;4951457;29;20626;-85
2024/02/29 14:37:32;;;;;;;4.40;3.10;;;;;;;;;;4948417;29;20480;-85
2024/02/29 14:40:00;;;;;;;3.20;2.90;;;;;;;;;;4950476;28;20421;-81
2024/02/29 14:42:41;;;;;;;5.07;3.23;;;;;;;;;;4966052;28;20461;-86
2024/02/29 14:45:12;;;;;;;2.90;2.60;;;;;;;;;;4973898;28;20469;-83
2024/02/29 14:47:42;;;;;;;4.90;3.10;;;;;;;;;;4956390;29;20464;-83
2024/02/29 14:50:10;;;;;;;3.17;2.47;;;;;;;;;;4953007;29;20461;-83
2024/02/29 14:52:39;;;;;;;3.93;3.07;;;;;;;;;;4955502;28;20469;-82
2024/02/29 14:55:13;;;;;;;2.83;2.53;;;;;;;;;;4952218;29;20475;-86
2024/02/29 14:57:41;;;;;;;3.57;2.77;;;;;;;;;;4957291;29;20473;-83
2024/02/29 15:00:14;;;;;;;4.70;3.13;;;;;;;;;;4953084;28;20450;-85
2024/02/29 15:02:42;;;;;;;3.20;2.90;;;;;;;;;;4964188;28;20448;-84
2024/02/29 15:05:25;;;;;;;3.67;3.30;;;;;;;;;;4951871;29;20425;-85
2024/02/29 15:07:54;;;;;;;3.57;2.90;;;;;;;;;;4966796;28;20458;-85
2024/02/29 15:10:25;;;;;;;5.00;3.27;;;;;;;;;;4969783;28;20448;-85
2024/02/29 15:12:52;;;;;;;3.80;3.00;;;;;;;;;;4955011;28;20490;-84
2024/02/29 15:16:18;;;;;;;;;;;;;;;;;;;;;
2024/02/29 15:25:56;;;;;;;3.30;2.30;;;;;;;;;;4902881;29;20451;-87
2024/02/29 15:28:47;;;;;;;2.80;2.60;;;;;;;;;;4901613;29;20435;-88
2024/02/29 15:31:47;;;;;;;4.47;3.47;;;;;;;;;;4895305;29;20572;-88
2024/02/29 15:34:54;;;;;;;3.30;2.77;;;;;;;;;;4900437;29;20498;-87
2024/02/29 15:37:32;;;;;;;3.83;2.90;;;;;;;;;;4891750;29;20493;-90
2024/02/29 15:40:06;;;;;;;3.00;2.37;;;;;;;;;;4900636;29;21341;-88
2024/02/29 15:43:00;;;;;;;3.20;2.90;;;;;;;;;;4899094;29;20467;-86
2024/02/29 15:46:04;;;;;;;3.47;3.17;;;;;;;;;;4888330;29;20468;-87
2024/02/29 15:49:03;;;;;;;2.97;2.60;;;;;;;;;;4855876;29;20551;-88
2024/02/29 15:52:01;;;;;;;2.33;2.13;;;;;;;;;;4892676;29;20559;-88
2024/02/29 15:54:46;;;;;;;3.17;2.60;;;;;;;;;;4897718;29;20610;-90
2024/02/29 15:57:36;;;;;;;2.77;2.57;;;;;;;;;;4959598;29;20485;-88
2024/02/29 16:00:24;;;;;;;4.20;3.63;;;;;;;;;;4974083;28;20513;-87
2024/02/29 16:06:25;;;;;;;3.20;2.37;;;;;;;;;;4959791;28;20449;-87
2024/02/29 16:08:58;;;;;;;3.30;3.00;;;;;;;;;;4970310;28;21786;-87
2024/02/29 16:11:46;;;;;;;5.60;3.00;;;;;;;;;;4963533;28;20461;-87
2024/02/29 16:14:38;;;;;;;4.00;3.33;;;;;;;;;;4965981;28;20545;-87
2024/02/29 16:17:27;;;;;;;4.97;2.70;;;;;;;;;;4966557;28;20489;-89
2024/02/29 16:20:09;;;;;;;3.83;3.10;;;;;;;;;;4971894;28;20709;-88
2024/02/29 16:23:22;;;;;;;3.17;2.53;;;;;;;;;;4958137;28;20974;-86
2024/02/29 16:26:19;;;;;;;3.00;2.67;;;;;;;;;;4967433;28;20437;-88
2024/02/29 16:29:21;;;;;;;3.10;2.80;;;;;;;;;;4953608;28;20463;-90
2024/02/29 16:32:01;;;;;;;5.37;2.87;;;;;;;;;;4955434;29;20449;-87
2024/02/29 16:34:44;;;;;;;2.43;2.20;;;;;;;;;;4958992;28;20468;-88
2024/02/29 16:37:50;;;;;;;3.00;2.47;;;;;;;;;;4958669;28;20516;-88
2024/02/29 16:40:35;;;;;;;3.33;2.43;;;;;;;;;;4951787;29;20485;-87
2024/02/29 16:43:29;;;;;;;5.60;2.57;;;;;;;;;;4956882;29;20548;-90
2024/02/29 16:46:26;;;;;;;;;;;;;;;;;;;;;
2024/02/29 16:49:27;;;;;;;2.83;2.53;;;;;;;;;;4955778;28;20445;-88
2024/02/29 16:52:34;;;;;;;3.30;2.43;;;;;;;;;;4962943;28;20527;-88
2024/02/29 16:55:52;;;;;;;2.27;2.07;;;;;;;;;;4949324;29;20453;-86
2024/02/29 17:04:58;;;;;;;2.23;2.10;;;;;;;;;;4961335;28;20461;-86
2024/02/29 17:11:13;;;;;;;2.50;2.30;;;;;;;;;;4942560;29;20481;-86
2024/02/29 17:14:05;;;;;;;3.23;2.93;;;;;;;;;;4960977;28;20460;-88
2024/02/29 17:16:50;;;;;;;4.93;2.60;;;;;;;;;;4949435;28;20447;-88
2024/02/29 17:19:43;;;;;;;3.60;2.40;;;;;;;;;;4965527;28;20468;-88
2024/02/29 17:22:32;;;;;;;2.60;2.40;;;;;;;;;;4955430;29;20470;-87
2024/02/29 17:25:39;;;;;;;2.70;2.17;;;;;;;;;;4998164;23;20494;-88
2024/02/29 17:28:26;;;;;;;3.60;2.17;;;;;;;;;;4984918;28;20453;-86
2024/02/29 17:31:10;;;;;;;5.83;3.30;;;;;;;;;;4965462;28;20483;-87
2024/02/29 17:33:57;;;;;;;3.00;2.70;;;;;;;;;;4987810;28;20493;-86
2024/02/29 17:40:24;;;;;;;3.20;2.67;;;;;;;;;;4941715;28;20706;-88
2024/02/29 17:43:07;;;;;;;3.40;2.83;;;;;;;;;;5004432;28;20466;-88
2024/02/29 17:46:02;;;;;;;3.70;3.30;;;;;;;;;;4986460;28;20642;-87
2024/02/29 17:48:48;;;;;;;;;;;;;;;;;;;;;
2024/02/29 17:51:30;;;;;;;2.80;2.50;;;;;;;;;;5007921;28;20457;-88
2024/02/29 17:54:34;;;;;;;4.30;2.73;;;;;;;;;;4952392;28;20444;-88
2024/02/29 17:57:19;;;;;;;;;;;;;;;;;;;;;
2024/02/29 18:00:37;;;;;;;3.77;3.10;;;;;;;;;;4953221;29;20476;-86
2024/02/29 18:03:54;;;;;;;3.30;2.60;;;;;;;;;;4906132;29;20497;-87
2024/02/29 18:24:33;;;;;;;3.33;2.90;;;;;;;;;;6238454;23;21259;-89
2024/02/29 18:27:14;;;;;;;3.33;2.93;;;;;;;;;;6214740;23;20435;-88
2024/02/29 18:40:51;;;;;;;3.90;3.33;;;;;;;;;;5123750;27;20518;-86
2024/02/29 18:43:46;;;;;;;4.43;3.60;;;;;;;;;;5102961;28;20694;-89
2024/02/29 18:46:39;;;;;;;3.40;3.03;;;;;;;;;;5080602;28;20531;-88
2024/02/29 18:50:00;;;;;;;;;;;;;;;;;;;;;
2024/02/29 18:56:08;;;;;;;4.60;3.20;;;;;;;;;;5011367;23;20885;-89
2024/02/29 18:58:45;;;;;;;3.10;2.73;;;;;;;;;;4999500;28;20483;-86
2024/02/29 19:01:16;;;;;;;3.90;3.30;;;;;;;;;;4990626;28;20462;-87
2024/02/29 19:04:01;;;;;;;4.57;3.00;;;;;;;;;;4981266;28;20479;-86
2024/02/29 19:06:50;;;;;;;6.43;2.57;;;;;;;;;;4975641;28;20471;-88
2024/02/29 19:09:40;;;;;;;;;;;;;;;;;;;;;
2024/02/29 19:12:36;;;;;;;4.00;3.60;;;;;;;;;;4984488;28;20512;-89
2024/02/29 19:34:03;;;;;;;3.90;3.07;;;;;;;;;;5124224;23;20466;-88
2024/02/29 19:37:10;;;;;;;3.60;3.20;;;;;;;;;;5010210;28;20418;-87
2024/02/29 19:45:40;;;;;;;7.10;3.80;;;;;;;;;;5505477;23;20557;-86
2024/02/29 19:48:34;;;;;;;6.83;4.83;;;;;;;;;;4983740;28;20479;-88
2024/02/29 19:51:22;;;;;;;5.23;3.97;;;;;;;;;;4979064;28;20433;-89
2024/02/29 19:57:43;;;;;;;6.63;4.77;;;;;;;;;;5019625;28;20500;-87